createdAt,value
2022-12-11T00:00:31.367Z,8.24
2022-12-11T00:02:59.769Z,8.27
2022-12-11T00:05:29.042Z,8.27
2022-12-11T00:08:05.491Z,8.20
2022-12-11T00:10:37.906Z,8.20
2022-12-11T00:13:06.675Z,8.22
2022-12-11T00:15:34.525Z,8.23
2022-12-11T00:18:06.303Z,8.23
2022-12-11T00:20:34.882Z,8.23
2022-12-11T00:23:04.537Z,8.22
2022-12-11T00:25:33.088Z,8.21
2022-12-11T00:28:01.423Z,8.19
2022-12-11T00:30:30.485Z,8.20
2022-12-11T00:32:59.742Z,8.21
2022-12-11T00:35:29.006Z,8.21
2022-12-11T00:37:57.566Z,8.22
2022-12-11T00:40:26.377Z,8.21
2022-12-11T00:42:55.174Z,8.20
2022-12-11T00:45:23.715Z,8.19
2022-12-11T00:47:52.979Z,8.15
2022-12-11T00:50:21.601Z,8.15
2022-12-11T00:52:50.382Z,8.13
2022-12-11T00:55:19.948Z,8.14
2022-12-11T00:57:48.976Z,8.16
2022-12-11T01:00:18.535Z,8.19
2022-12-11T01:02:47.896Z,8.20
2022-12-11T01:05:18.482Z,8.23
2022-12-11T01:07:47.200Z,8.23
2022-12-11T01:10:24.889Z,8.22
2022-12-11T01:13:01.415Z,8.18
2022-12-11T01:15:36.457Z,8.13
2022-12-11T01:18:08.787Z,8.03
2022-12-11T01:20:40.842Z,7.94
2022-12-11T01:23:09.913Z,7.90
2022-12-11T01:25:41.617Z,7.93
2022-12-11T01:28:10.320Z,7.98
2022-12-11T01:30:38.713Z,8.03
2022-12-11T01:33:06.793Z,8.08
2022-12-11T01:35:35.006Z,8.12
2022-12-11T01:38:03.292Z,8.15
2022-12-11T01:40:31.039Z,8.16
2022-12-11T01:42:59.934Z,8.18
2022-12-11T01:45:36.691Z,8.17
2022-12-11T01:48:08.841Z,8.15
2022-12-11T01:50:51.782Z,8.11
2022-12-11T01:53:54.373Z,8.09
2022-12-11T01:56:24.085Z,8.07
2022-12-11T01:58:56.778Z,8.04
2022-12-11T02:02:13.240Z,8.03
2022-12-11T02:04:43.483Z,8.03
2022-12-11T02:07:12.820Z,8.01
2022-12-11T02:09:44.024Z,7.98
2022-12-11T02:12:12.178Z,7.96
2022-12-11T02:14:47.691Z,7.94
2022-12-11T02:17:18.400Z,7.90
2022-12-11T02:20:11.682Z,7.90
2022-12-11T02:22:58.673Z,7.89
2022-12-11T02:25:41.268Z,7.86
2022-12-11T02:28:14.877Z,7.86
2022-12-11T02:30:49.263Z,7.84
2022-12-11T02:33:22.845Z,7.82
2022-12-11T02:35:51.709Z,7.81
2022-12-11T02:38:32.203Z,7.80
2022-12-11T02:41:03.578Z,7.83
2022-12-11T02:43:34.219Z,7.82
2022-12-11T02:46:06.704Z,7.84
2022-12-11T02:48:35.653Z,7.86
2022-12-11T02:51:07.643Z,7.87
2022-12-11T02:53:41.750Z,7.86
2022-12-11T02:56:42.838Z,7.89
2022-12-11T02:59:16.269Z,7.91
2022-12-11T03:01:45.058Z,7.94
2022-12-11T03:04:13.267Z,7.97
2022-12-11T03:06:49.753Z,8.02
2022-12-11T03:09:18.897Z,8.06
2022-12-11T03:11:48.248Z,8.09
2022-12-11T03:14:16.801Z,8.10
2022-12-11T03:17:14.928Z,8.11
2022-12-11T03:20:32.592Z,8.10
2022-12-11T03:23:24.510Z,8.08
2022-12-11T03:25:54.969Z,8.07
2022-12-11T03:28:50.511Z,8.05
2022-12-11T03:31:29.200Z,8.06
2022-12-11T03:34:03.967Z,8.10
2022-12-11T03:36:37.048Z,8.14
2022-12-11T03:39:51.554Z,8.17
2022-12-11T03:42:23.377Z,8.17
2022-12-11T03:44:55.962Z,8.15
2022-12-11T03:47:26.767Z,8.14
2022-12-11T03:49:57.758Z,8.12
2022-12-11T03:52:28.383Z,8.15
2022-12-11T03:55:02.062Z,8.18
2022-12-11T03:57:35.597Z,8.16
2022-12-11T04:00:28.770Z,8.12
2022-12-11T04:03:16.163Z,8.11
2022-12-11T04:05:46.130Z,8.08
2022-12-11T04:08:14.301Z,8.06
2022-12-11T04:10:42.949Z,8.08
2022-12-11T04:13:12.027Z,8.09
2022-12-11T04:15:41.805Z,8.06
2022-12-11T04:18:29.528Z,8.01
2022-12-11T04:21:17.083Z,7.95
2022-12-11T04:24:04.554Z,7.86
2022-12-11T04:26:33.495Z,7.76
2022-12-11T04:29:03.208Z,7.72
2022-12-11T04:31:32.001Z,7.70
2022-12-11T04:34:00.826Z,7.67
2022-12-11T04:36:30.092Z,7.62
2022-12-11T04:38:59.286Z,7.56
2022-12-11T04:41:27.618Z,7.52
2022-12-11T04:43:56.690Z,7.50
2022-12-11T04:46:25.334Z,7.50
2022-12-11T04:48:57.363Z,7.48
2022-12-11T04:51:26.638Z,7.45
2022-12-11T04:53:55.394Z,7.37
2022-12-11T04:56:23.486Z,7.26
2022-12-11T04:58:52.801Z,7.16
2022-12-11T05:01:24.217Z,7.07
2022-12-11T05:03:53.204Z,7.03
2022-12-11T05:06:21.958Z,6.99
2022-12-11T05:08:51.460Z,6.95
2022-12-11T05:11:20.129Z,6.91
2022-12-11T05:13:49.397Z,6.84
2022-12-11T05:16:18.803Z,6.76
2022-12-11T05:18:48.494Z,6.71
2022-12-11T05:21:16.642Z,6.64
2022-12-11T05:23:45.121Z,6.58
2022-12-11T05:26:20.189Z,6.55
2022-12-11T05:28:53.645Z,6.46
2022-12-11T05:31:25.123Z,6.42
2022-12-11T05:33:54.253Z,6.45
2022-12-11T05:36:31.707Z,6.49
2022-12-11T05:39:01.998Z,6.54
2022-12-11T05:41:32.919Z,6.59
2022-12-11T05:44:01.468Z,6.63
2022-12-11T05:46:31.451Z,6.64
2022-12-11T05:49:01.968Z,6.65
2022-12-11T05:51:31.716Z,6.66
2022-12-11T05:54:00.791Z,6.70
2022-12-11T05:56:31.654Z,6.73
2022-12-11T05:59:01.233Z,6.75
2022-12-11T06:01:42.343Z,6.77
2022-12-11T06:04:12.880Z,6.76
2022-12-11T06:06:41.784Z,6.75
2022-12-11T06:09:14.165Z,6.74
2022-12-11T06:11:42.856Z,6.73
2022-12-11T06:14:12.602Z,6.72
2022-12-11T06:16:41.302Z,6.70
2022-12-11T06:19:37.185Z,6.70
2022-12-11T06:22:06.197Z,6.72
2022-12-11T06:24:34.920Z,6.74
2022-12-11T06:27:03.457Z,6.77
2022-12-11T06:29:32.366Z,6.77
2022-12-11T06:32:01.352Z,6.75
2022-12-11T06:34:30.583Z,6.77
2022-12-11T06:36:59.130Z,6.81
2022-12-11T06:39:27.773Z,6.82
2022-12-11T06:41:56.423Z,6.84
2022-12-11T06:44:25.500Z,6.84
2022-12-11T06:46:53.330Z,6.81
2022-12-11T06:49:22.737Z,6.79
2022-12-11T06:51:52.480Z,6.76
2022-12-11T06:54:21.039Z,6.74
2022-12-11T06:56:49.335Z,6.73
2022-12-11T06:59:18.456Z,6.76
2022-12-11T07:01:47.963Z,6.79
2022-12-11T07:04:16.806Z,6.81
2022-12-11T07:06:47.799Z,6.81
2022-12-11T07:09:16.534Z,6.78
2022-12-11T07:11:45.492Z,6.74
2022-12-11T07:14:14.358Z,6.70
2022-12-11T07:16:43.535Z,6.67
2022-12-11T07:19:12.559Z,6.67
2022-12-11T07:21:41.960Z,6.72
2022-12-11T07:24:10.648Z,6.75
2022-12-11T07:26:40.144Z,6.83
2022-12-11T07:29:08.525Z,6.87
2022-12-11T07:31:37.180Z,6.84
2022-12-11T07:34:07.806Z,6.77
2022-12-11T07:36:36.700Z,6.70
2022-12-11T07:39:05.744Z,6.63
2022-12-11T07:41:34.385Z,6.58
2022-12-11T07:44:02.989Z,6.54
2022-12-11T07:46:32.966Z,6.54
2022-12-11T07:49:03.917Z,6.54
2022-12-11T07:51:35.874Z,6.56
2022-12-11T07:54:09.850Z,6.59
2022-12-11T07:56:37.820Z,6.57
2022-12-11T07:59:07.539Z,6.54
2022-12-11T08:01:37.947Z,6.53
2022-12-11T08:04:09.105Z,6.56
2022-12-11T08:06:40.022Z,6.60
2022-12-11T08:09:10.015Z,6.63
2022-12-11T08:11:39.245Z,6.66
2022-12-11T08:14:09.116Z,6.67
2022-12-11T08:16:38.135Z,6.67
2022-12-11T08:19:06.612Z,6.65
2022-12-11T08:21:35.226Z,6.66
2022-12-11T08:24:04.301Z,6.67
2022-12-11T08:26:33.222Z,6.74
2022-12-11T08:29:03.058Z,6.79
2022-12-11T08:31:31.782Z,6.82
2022-12-11T08:34:00.298Z,6.85
2022-12-11T08:36:28.978Z,6.86
2022-12-11T08:38:57.504Z,6.86
2022-12-11T08:41:28.482Z,6.87
2022-12-11T08:44:00.533Z,6.87
2022-12-11T08:46:31.721Z,6.88
2022-12-11T08:49:00.184Z,6.90
2022-12-11T08:51:30.109Z,6.97
2022-12-11T08:54:01.225Z,7.01
2022-12-11T08:56:30.814Z,7.06
2022-12-11T08:59:03.037Z,7.11
2022-12-11T09:01:31.952Z,7.16
2022-12-11T09:04:00.744Z,7.20
2022-12-11T09:06:30.993Z,7.23
2022-12-11T09:09:00.807Z,7.24
2022-12-11T09:11:31.830Z,7.25
2022-12-11T09:14:06.723Z,7.26
2022-12-11T09:16:57.221Z,7.30
2022-12-11T09:19:32.094Z,7.32
2022-12-11T09:22:01.128Z,7.32
2022-12-11T09:24:29.724Z,7.32
2022-12-11T09:26:58.409Z,7.29
2022-12-11T09:29:26.735Z,7.26
2022-12-11T09:31:55.427Z,7.24
2022-12-11T09:34:29.100Z,7.19
2022-12-11T09:36:58.271Z,7.18
2022-12-11T09:39:26.888Z,7.19
2022-12-11T09:42:19.124Z,7.19
2022-12-11T09:44:52.656Z,7.19
2022-12-11T09:47:25.638Z,7.20
2022-12-11T09:50:20.800Z,7.21
2022-12-11T09:53:05.355Z,7.20
2022-12-11T09:56:18.301Z,7.18
2022-12-11T09:58:58.135Z,7.17
2022-12-11T10:01:51.043Z,7.21
2022-12-11T10:04:53.345Z,7.24
2022-12-11T10:07:53.189Z,7.26
2022-12-11T10:10:20.920Z,7.23
2022-12-11T10:12:55.887Z,7.20
2022-12-11T10:15:38.625Z,7.13
2022-12-11T10:18:13.768Z,7.10
2022-12-11T10:20:43.430Z,7.09
2022-12-11T10:23:23.286Z,7.09
2022-12-11T10:26:03.342Z,7.07
2022-12-11T10:28:32.537Z,7.06
2022-12-11T10:31:06.438Z,7.02
2022-12-11T10:34:14.137Z,6.97
2022-12-11T10:36:44.550Z,6.94
2022-12-11T10:39:16.347Z,6.93
2022-12-11T10:41:47.373Z,6.94
2022-12-11T10:44:26.664Z,6.94
2022-12-11T10:47:15.577Z,6.93
2022-12-11T10:49:53.209Z,6.86
2022-12-11T10:52:24.691Z,6.81
2022-12-11T10:55:08.763Z,6.78
2022-12-11T10:57:39.403Z,6.78
2022-12-11T11:00:27.060Z,6.73
2022-12-11T11:02:57.238Z,6.70
2022-12-11T11:05:38.566Z,6.72
2022-12-11T11:08:24.062Z,6.74
2022-12-11T11:10:52.096Z,6.77
2022-12-11T11:13:23.141Z,6.79
2022-12-11T11:16:13.114Z,6.80
2022-12-11T11:18:43.973Z,6.79
2022-12-11T11:21:20.954Z,6.78
2022-12-11T11:23:53.194Z,6.77
2022-12-11T11:26:23.285Z,6.79
2022-12-11T11:28:58.025Z,6.80
2022-12-11T11:31:36.514Z,6.81
2022-12-11T11:34:10.799Z,6.82
2022-12-11T11:36:39.720Z,6.85
2022-12-11T11:39:13.607Z,6.86
2022-12-11T11:41:50.952Z,6.88
2022-12-11T11:44:48.535Z,6.87
2022-12-11T11:47:38.211Z,6.83
2022-12-11T11:50:26.569Z,6.82
2022-12-11T11:53:20.497Z,6.85
2022-12-11T11:56:02.048Z,6.87
2022-12-11T11:59:28.446Z,6.88
2022-12-11T12:01:58.068Z,6.88
2022-12-11T12:04:33.054Z,6.86
2022-12-11T12:07:25.805Z,6.86
2022-12-11T12:10:16.996Z,6.85
2022-12-11T12:13:48.171Z,6.82
2022-12-11T12:16:51.697Z,6.77
2022-12-11T12:19:28.973Z,6.73
2022-12-11T12:21:58.193Z,6.74
2022-12-11T12:24:35.796Z,6.75
2022-12-11T12:27:50.572Z,6.74
2022-12-11T12:30:14.066Z,6.75
2022-12-11T12:33:04.723Z,6.75
2022-12-11T12:35:37.612Z,6.74
2022-12-11T12:38:12.185Z,6.72
2022-12-11T12:40:58.303Z,6.70
2022-12-11T12:43:44.059Z,6.64
2022-12-11T12:46:57.160Z,6.60
2022-12-11T12:49:41.513Z,6.55
2022-12-11T12:52:34.505Z,6.52
2022-12-11T12:55:19.115Z,6.48
2022-12-11T12:58:26.367Z,6.44
2022-12-11T13:00:54.944Z,6.35
2022-12-11T13:03:23.332Z,6.28
2022-12-11T13:06:04.173Z,6.25
2022-12-11T13:08:39.646Z,6.26
2022-12-11T13:11:13.695Z,6.26
2022-12-11T13:14:22.781Z,6.23
2022-12-11T13:16:53.063Z,6.16
2022-12-11T13:19:23.406Z,6.10
2022-12-11T13:22:15.040Z,6.03
2022-12-11T13:24:49.076Z,5.99
2022-12-11T13:27:26.159Z,5.94
2022-12-11T13:30:05.875Z,5.92
2022-12-11T13:32:34.694Z,5.89
2022-12-11T13:35:07.758Z,5.89
2022-12-11T13:37:35.546Z,5.92
2022-12-11T13:40:09.236Z,5.95
2022-12-11T13:42:49.026Z,5.90
2022-12-11T13:45:27.960Z,5.78
2022-12-11T13:47:59.144Z,5.68
2022-12-11T13:50:32.392Z,5.60
2022-12-11T13:53:02.205Z,5.50
2022-12-11T13:55:32.887Z,5.41
2022-12-11T13:58:02.539Z,5.32
2022-12-11T14:00:33.626Z,5.26
2022-12-11T14:03:07.614Z,5.24
2022-12-11T14:05:36.940Z,5.20
2022-12-11T14:08:10.625Z,5.14
2022-12-11T14:10:40.728Z,5.11
2022-12-11T14:13:20.919Z,5.10
2022-12-11T14:15:49.756Z,5.02
2022-12-11T14:18:25.147Z,4.93
2022-12-11T14:21:21.942Z,4.82
2022-12-11T14:23:59.244Z,4.82
2022-12-11T14:26:38.750Z,4.84
2022-12-11T14:29:07.910Z,4.87
2022-12-11T14:31:43.916Z,4.92
2022-12-11T14:34:26.744Z,5.01
2022-12-11T14:36:57.081Z,5.12
2022-12-11T14:39:30.926Z,5.16
2022-12-11T14:42:05.523Z,5.17
2022-12-11T14:44:41.218Z,5.14
2022-12-11T14:47:38.625Z,5.11
2022-12-11T14:50:13.065Z,5.08
2022-12-11T14:52:48.189Z,5.06
2022-12-11T14:55:41.442Z,5.05
2022-12-11T14:58:21.553Z,5.07
2022-12-11T15:01:06.453Z,5.06
2022-12-11T15:03:39.866Z,5.04
2022-12-11T15:06:30.419Z,5.03
2022-12-11T15:08:58.733Z,5.01
2022-12-11T15:11:32.906Z,5.01
2022-12-11T15:14:05.310Z,4.99
2022-12-11T15:16:38.203Z,4.98
2022-12-11T15:19:07.318Z,4.99
2022-12-11T15:21:37.214Z,5.05
2022-12-11T15:24:07.941Z,5.05
2022-12-11T15:26:46.325Z,5.05
2022-12-11T15:29:35.162Z,5.03
2022-12-11T15:32:09.111Z,5.02
2022-12-11T15:34:57.829Z,5.04
2022-12-11T15:37:28.873Z,5.03
2022-12-11T15:39:59.291Z,5.03
2022-12-11T15:42:31.812Z,5.02
2022-12-11T15:45:00.758Z,5.00
2022-12-11T15:47:32.104Z,4.97
2022-12-11T15:50:35.970Z,5.01
2022-12-11T15:53:06.989Z,5.01
2022-12-11T15:55:35.514Z,5.00
2022-12-11T15:58:08.461Z,4.98
2022-12-11T16:00:37.248Z,4.99
2022-12-11T16:03:06.881Z,5.00
2022-12-11T16:05:35.437Z,5.04
2022-12-11T16:08:03.654Z,5.06
2022-12-11T16:10:33.040Z,5.08
2022-12-11T16:13:02.856Z,5.08
2022-12-11T16:15:32.336Z,5.06
2022-12-11T16:18:05.310Z,5.06
2022-12-11T16:20:34.854Z,5.10
2022-12-11T16:23:02.716Z,5.13
2022-12-11T16:25:30.385Z,5.16
2022-12-11T16:28:01.358Z,5.19
2022-12-11T16:30:30.576Z,5.21
2022-12-11T16:32:59.541Z,5.22
2022-12-11T16:35:30.215Z,5.22
2022-12-11T16:37:59.662Z,5.21
2022-12-11T16:40:29.070Z,5.21
2022-12-11T16:42:58.502Z,5.16
2022-12-11T16:45:27.237Z,5.13
2022-12-11T16:47:55.771Z,5.10
2022-12-11T16:50:24.898Z,5.09
2022-12-11T16:52:52.448Z,5.10
2022-12-11T16:55:22.429Z,5.13
2022-12-11T16:57:50.713Z,5.13
2022-12-11T17:00:21.217Z,5.13
2022-12-11T17:02:50.751Z,5.13
2022-12-11T17:05:19.859Z,5.14
2022-12-11T17:07:48.917Z,5.13
2022-12-11T17:10:17.760Z,5.15
2022-12-11T17:12:47.009Z,5.14
2022-12-11T17:15:16.224Z,5.13
2022-12-11T17:17:45.402Z,5.13
2022-12-11T17:20:14.360Z,5.15
2022-12-11T17:22:43.026Z,5.17
2022-12-11T17:25:13.230Z,5.19
2022-12-11T17:27:42.443Z,5.17
2022-12-11T17:30:14.437Z,5.12
2022-12-11T17:32:42.653Z,5.08
2022-12-11T17:35:12.080Z,5.05
2022-12-11T17:37:40.902Z,5.04
2022-12-11T17:40:11.421Z,5.04
2022-12-11T17:42:39.923Z,5.03
2022-12-11T17:45:11.206Z,5.04
2022-12-11T17:47:40.706Z,5.08
2022-12-11T17:50:11.200Z,5.11
2022-12-11T17:52:44.116Z,5.15
2022-12-11T17:55:12.541Z,5.17
2022-12-11T17:57:41.866Z,5.16
2022-12-11T18:00:14.194Z,5.16
2022-12-11T18:02:43.602Z,5.15
2022-12-11T18:05:13.478Z,5.12
2022-12-11T18:07:42.429Z,5.12
2022-12-11T18:10:12.467Z,5.10
2022-12-11T18:12:40.986Z,5.08
2022-12-11T18:15:11.067Z,5.08
2022-12-11T18:17:39.817Z,5.11
2022-12-11T18:20:34.027Z,5.12
2022-12-11T18:23:02.922Z,5.12
2022-12-11T18:25:31.512Z,5.14
2022-12-11T18:28:00.299Z,5.16
2022-12-11T18:30:29.049Z,5.14
2022-12-11T18:32:57.245Z,5.11
2022-12-11T18:35:25.645Z,5.08
2022-12-11T18:37:54.410Z,5.07
2022-12-11T18:40:23.029Z,5.05
2022-12-11T18:42:51.534Z,5.03
2022-12-11T18:45:20.075Z,5.03
2022-12-11T18:47:48.301Z,5.03
2022-12-11T18:50:17.280Z,5.02
2022-12-11T18:52:46.827Z,5.01
2022-12-11T18:55:15.670Z,5.01
2022-12-11T18:57:44.733Z,5.00
2022-12-11T19:00:15.751Z,5.00
2022-12-11T19:02:44.130Z,4.99
2022-12-11T19:05:14.082Z,4.98
2022-12-11T19:07:42.735Z,4.94
2022-12-11T19:10:12.586Z,4.91
2022-12-11T19:12:43.140Z,4.92
2022-12-11T19:15:13.953Z,4.94
2022-12-11T19:17:43.578Z,4.97
2022-12-11T19:20:40.457Z,4.97
2022-12-11T19:23:02.126Z,4.98
2022-12-11T19:25:30.753Z,4.98
2022-12-11T19:27:59.888Z,4.97
2022-12-11T19:30:28.174Z,4.93
2022-12-11T19:32:58.349Z,4.86
2022-12-11T19:35:27.625Z,4.81
2022-12-11T19:37:57.520Z,4.79
2022-12-11T19:40:26.733Z,4.78
2022-12-11T19:42:55.574Z,4.74
2022-12-11T19:45:24.526Z,4.73
2022-12-11T19:47:53.960Z,4.71
2022-12-11T19:50:26.561Z,4.64
2022-12-11T19:52:55.270Z,4.60
2022-12-11T19:55:23.989Z,4.58
2022-12-11T19:57:51.753Z,4.56
2022-12-11T20:00:21.388Z,4.51
2022-12-11T20:02:51.105Z,4.48
2022-12-11T20:05:20.438Z,4.46
2022-12-11T20:07:49.105Z,4.40
2022-12-11T20:10:17.492Z,4.31
2022-12-11T20:12:46.108Z,4.17
2022-12-11T20:15:17.241Z,4.06
2022-12-11T20:17:46.036Z,3.96
2022-12-11T20:20:14.139Z,3.84
2022-12-11T20:22:43.561Z,3.73
2022-12-11T20:25:12.130Z,3.66
2022-12-11T20:27:41.181Z,3.64
2022-12-11T20:30:11.188Z,3.66
2022-12-11T20:32:40.697Z,3.64
2022-12-11T20:35:10.612Z,3.63
2022-12-11T20:37:39.760Z,3.58
2022-12-11T20:40:11.392Z,3.51
2022-12-11T20:42:40.432Z,3.50
2022-12-11T20:45:11.556Z,3.49
2022-12-11T20:47:40.961Z,3.48
2022-12-11T20:50:16.264Z,3.47
2022-12-11T20:52:45.018Z,3.47
2022-12-11T20:55:14.186Z,3.44
2022-12-11T20:57:45.362Z,3.37
2022-12-11T21:00:16.282Z,3.26
2022-12-11T21:02:45.987Z,3.18
2022-12-11T21:05:14.857Z,3.16
2022-12-11T21:07:44.676Z,3.14
2022-12-11T21:10:14.368Z,3.12
2022-12-11T21:12:43.449Z,3.07
2022-12-11T21:15:13.292Z,3.01
2022-12-11T21:17:42.328Z,2.91
2022-12-11T21:20:13.243Z,2.84
2022-12-11T21:22:42.185Z,2.83
2022-12-11T21:25:11.995Z,2.82
2022-12-11T21:27:40.042Z,2.81
2022-12-11T21:30:11.040Z,2.82
2022-12-11T21:32:39.845Z,2.83
2022-12-11T21:35:10.004Z,2.82
2022-12-11T21:37:41.181Z,2.83
2022-12-11T21:40:12.048Z,2.80
2022-12-11T21:42:40.212Z,2.72
2022-12-11T21:47:59.402Z,2.71
2022-12-11T21:50:27.928Z,2.76
2022-12-11T21:52:56.002Z,2.80
2022-12-11T21:55:24.808Z,2.83
2022-12-11T21:57:54.712Z,2.83
2022-12-11T22:00:25.167Z,2.82
2022-12-11T22:02:53.953Z,2.79
2022-12-11T22:05:22.434Z,2.76
2022-12-11T22:07:51.356Z,2.74
2022-12-11T22:10:20.088Z,2.76
2022-12-11T22:12:49.029Z,2.74
2022-12-11T22:15:18.426Z,2.66
2022-12-11T22:17:47.335Z,2.57
2022-12-11T22:20:15.908Z,2.52
2022-12-11T22:22:44.855Z,2.45
2022-12-11T22:25:14.055Z,2.40
2022-12-11T22:27:45.130Z,2.38
2022-12-11T22:30:14.652Z,2.38
2022-12-11T22:32:43.609Z,2.38
2022-12-11T22:35:13.332Z,2.36
2022-12-11T22:37:42.310Z,2.34
2022-12-11T22:40:11.290Z,2.34
2022-12-11T22:42:40.617Z,2.34
2022-12-11T22:45:14.480Z,2.33
2022-12-11T22:47:42.477Z,2.36
2022-12-11T22:50:12.866Z,2.38
2022-12-11T22:52:41.475Z,2.37
2022-12-11T22:55:10.776Z,2.37
2022-12-11T22:57:40.440Z,2.38
2022-12-11T23:00:15.560Z,2.38
2022-12-11T23:02:43.990Z,2.29
2022-12-11T23:05:12.863Z,2.24
2022-12-11T23:07:42.355Z,2.17
2022-12-11T23:10:13.360Z,2.06
2022-12-11T23:12:42.712Z,1.93
2022-12-11T23:15:11.677Z,1.83
2022-12-11T23:17:40.800Z,1.81
2022-12-11T23:20:11.023Z,1.82
2022-12-11T23:22:39.930Z,1.81
2022-12-11T23:25:11.246Z,1.82
2022-12-11T23:27:40.580Z,1.81
2022-12-11T23:30:10.330Z,1.79
2022-12-11T23:32:39.936Z,1.76
2022-12-11T23:35:10.759Z,1.70
2022-12-11T23:37:40.649Z,1.66
2022-12-11T23:40:14.607Z,1.65
2022-12-11T23:42:43.496Z,1.64
2022-12-11T23:45:13.387Z,1.64
2022-12-11T23:47:42.680Z,1.66
2022-12-11T23:50:11.387Z,1.66
2022-12-11T23:52:40.391Z,1.66
2022-12-11T23:55:11.178Z,1.64
2022-12-11T23:57:39.407Z,1.64
